Time;durP1;ratioP1;P1;durP2;ratioP2;P2;SDS_P1;SDS_P2;PMS_P1;PMS_P2;Temp;Humidity;BMP_temperature;BMP_pressure;BME280_temperature;BME280_humidity;BME280_pressure;Samples;Min_cycle;Max_cycle;Signal;HPM_P1;HPM_P2
2021/09/12 00:00:43;;;;;;;21.60;13.13;;;;;;;15.44;62.29;99964.11;1703830;84;21303;-77
2021/09/12 00:03:49;;;;;;;28.75;13.22;;;;;;;15.40;61.87;99962.31;1704027;84;21288;-77
2021/09/12 00:06:55;;;;;;;29.82;14.55;;;;;;;15.37;61.59;99955.00;1702599;84;21881;-77
2021/09/12 00:10:01;;;;;;;31.70;13.75;;;;;;;15.34;61.41;99959.89;1703774;84;21296;-78
2021/09/12 00:13:07;;;;;;;38.58;13.80;;;;;;;15.32;61.39;99955.64;1702682;84;21374;-77
2021/09/12 00:16:13;;;;;;;32.60;13.43;;;;;;;15.31;61.54;99952.58;1702354;84;21233;-77
2021/09/12 00:19:20;;;;;;;33.60;14.15;;;;;;;15.28;62.21;99953.00;1702565;84;21832;-78
2021/09/12 00:22:27;;;;;;;24.60;13.75;;;;;;;15.24;63.36;99951.23;1702471;84;21217;-77
2021/09/12 00:25:36;;;;;;;35.08;13.62;;;;;;;15.22;63.99;99960.77;1703333;84;21355;-78
2021/09/12 00:28:42;;;;;;;29.10;14.05;;;;;;;15.18;65.19;99960.34;1702621;84;21193;-77
2021/09/12 00:31:47;;;;;;;37.08;15.13;;;;;;;15.15;65.80;99959.91;1703598;84;21846;-77
2021/09/12 00:34:51;;;;;;;34.73;14.98;;;;;;;15.12;65.79;99956.23;1703753;84;21324;-77
2021/09/12 00:37:56;;;;;;;24.70;14.20;;;;;;;15.11;65.84;99955.39;1702755;84;21351;-78
2021/09/12 00:41:06;;;;;;;29.87;14.80;;;;;;;15.08;66.11;99951.14;1702579;84;21292;-78
2021/09/12 00:44:12;;;;;;;;;;;;;;;15.06;66.38;99944.17;1706529;84;21288;-77
2021/09/12 00:47:19;;;;;;;30.62;14.45;;;;;;;15.03;67.17;99946.80;1703346;84;20255;-77
2021/09/12 00:50:24;;;;;;;26.35;15.10;;;;;;;14.99;67.84;99941.94;1703818;84;21921;-78
2021/09/12 00:53:30;;;;;;;30.88;15.13;;;;;;;14.96;68.38;99937.72;1703787;84;21269;-77
2021/09/12 00:56:28;;;;;;;34.95;14.63;;;;;;;14.94;68.85;99941.20;1702894;84;21300;-77
2021/09/12 00:59:34;;;;;;;30.30;15.58;;;;;;;14.92;69.54;99939.20;1703867;84;21242;-78
2021/09/12 01:02:39;;;;;;;29.85;15.20;;;;;;;14.90;69.94;99936.33;1702946;84;21229;-78
2021/09/12 01:05:45;;;;;;;40.20;15.13;;;;;;;14.88;70.47;99939.31;1703547;84;21873;-78
2021/09/12 01:08:51;;;;;;;30.17;15.98;;;;;;;14.87;70.99;99931.24;1702613;84;21319;-78
2021/09/12 01:11:56;;;;;;;36.00;16.12;;;;;;;14.86;70.89;99933.16;1702575;84;21775;-77
2021/09/12 01:15:02;;;;;;;42.60;15.68;;;;;;;14.87;70.55;99934.00;1702401;84;21233;-78
2021/09/12 01:18:08;;;;;;;38.58;16.25;;;;;;;14.85;70.28;99935.59;1702595;84;21249;-78
2021/09/12 01:21:14;;;;;;;24.65;14.50;;;;;;;14.82;70.07;99933.29;1703828;84;21205;-77
2021/09/12 01:24:19;;;;;;;34.23;15.80;;;;;;;14.81;69.78;99943.96;1703536;84;21209;-78
2021/09/12 01:27:24;;;;;;;23.00;14.65;;;;;;;14.77;69.93;99941.31;1702828;84;21712;-77
2021/09/12 01:30:30;;;;;;;29.92;14.03;;;;;;;14.73;70.20;99945.58;1702642;84;21186;-78
2021/09/12 01:33:34;;;;;;;26.95;14.58;;;;;;;14.72;70.77;99950.74;1703937;84;21288;-77
2021/09/12 01:36:40;;;;;;;28.98;15.80;;;;;;;14.67;71.61;99943.12;1702658;84;21185;-77
2021/09/12 01:39:46;;;;;;;28.23;15.63;;;;;;;14.66;72.22;99941.96;1702737;84;21340;-77
2021/09/12 01:42:52;;;;;;;24.90;14.23;;;;;;;14.64;72.59;99938.59;1703260;83;21327;-78
2021/09/12 01:45:57;;;;;;;24.77;14.58;;;;;;;14.64;72.87;99947.69;1706732;84;21170;-77
2021/09/12 01:49:03;;;;;;;30.72;14.33;;;;;;;14.63;72.96;99952.01;1705471;84;21221;-77
2021/09/12 01:52:09;;;;;;;26.60;14.40;;;;;;;14.60;73.33;99952.45;1706213;84;21708;-77
2021/09/12 01:55:17;;;;;;;34.70;15.88;;;;;;;14.57;73.76;99961.96;1705367;84;21244;-77
2021/09/12 01:58:21;;;;;;;29.00;15.08;;;;;;;14.54;74.00;99959.66;1707014;84;21273;-78
2021/09/12 02:01:28;;;;;;;29.00;15.53;;;;;;;14.52;74.32;99963.13;1706656;84;21845;-78
2021/09/12 02:04:33;;;;;;;25.70;15.53;;;;;;;14.48;74.60;99962.69;1707008;84;21284;-77
2021/09/12 02:07:39;;;;;;;27.32;15.65;;;;;;;14.46;74.94;99958.44;1705855;84;21359;-78
2021/09/12 02:10:44;;;;;;;32.38;15.68;;;;;;;14.41;75.22;99953.56;1706116;84;21943;-78
2021/09/12 02:13:51;;;;;;;25.12;14.15;;;;;;;14.39;75.40;99949.31;1707016;84;21289;-77
2021/09/12 02:16:56;;;;;;;24.77;15.35;;;;;;;14.36;75.60;99954.73;1705699;84;21209;-78
2021/09/12 02:20:01;;;;;;;30.25;15.18;;;;;;;14.33;75.90;99957.89;1706852;84;21205;-77
2021/09/12 02:23:06;;;;;;;31.17;15.00;;;;;;;14.29;76.09;99956.60;1707078;84;21323;-77
2021/09/12 02:26:12;;;;;;;31.50;14.93;;;;;;;14.28;76.26;99946.66;1706285;84;21201;-78
2021/09/12 02:29:18;;;;;;;31.40;14.95;;;;;;;14.25;76.52;99954.80;1707054;84;21173;-78
2021/09/12 02:32:25;;;;;;;27.75;15.65;;;;;;;14.26;76.61;99953.77;1705432;84;21769;-78
2021/09/12 02:35:30;;;;;;;31.12;15.40;;;;;;;14.26;76.60;99951.55;1707032;84;21332;-78
2021/09/12 02:38:38;;;;;;;29.02;15.50;;;;;;;14.26;76.75;99955.14;1705750;84;21260;-77
2021/09/12 02:41:43;;;;;;;30.17;15.15;;;;;;;14.27;76.96;99950.48;1706791;84;21328;-78
2021/09/12 02:44:50;;;;;;;30.20;14.68;;;;;;;14.26;77.13;99957.05;1706571;83;21209;-78
2021/09/12 02:47:55;;;;;;;34.05;14.95;;;;;;;14.26;77.23;99961.17;1706963;84;21332;-78
2021/09/12 02:51:01;;;;;;;30.25;15.00;;;;;;;14.24;77.33;99950.36;1707018;84;21288;-78
2021/09/12 02:54:07;;;;;;;26.40;14.98;;;;;;;14.25;77.34;99953.95;1705425;84;21726;-77
2021/09/12 02:57:12;;;;;;;26.77;15.13;;;;;;;14.24;77.21;99947.60;1706867;84;21312;-77
2021/09/12 03:00:17;;;;;;;29.82;15.83;;;;;;;14.25;77.00;99952.57;1706770;84;21182;-78
2021/09/12 03:03:23;;;;;;;33.35;14.53;;;;;;;14.25;76.77;99949.83;1705619;84;21162;-78
2021/09/12 03:06:30;;;;;;;30.17;14.15;;;;;;;14.26;76.44;99951.55;1706965;84;21257;-78
2021/09/12 03:09:34;;;;;;;36.13;13.55;;;;;;;14.26;75.84;99950.16;1706946;84;21296;-77
2021/09/12 03:12:40;;;;;;;28.98;14.00;;;;;;;14.26;75.15;99952.39;1706708;84;21237;-77
2021/09/12 03:15:47;;;;;;;26.90;14.68;;;;;;;14.28;74.51;99948.04;1706988;84;21801;-77
2021/09/12 03:18:52;;;;;;;26.15;13.60;;;;;;;14.29;74.00;99951.11;1705801;84;21319;-78
2021/09/12 03:21:57;;;;;;;30.48;14.45;;;;;;;14.30;73.65;99951.41;1705481;84;21209;-77
2021/09/12 03:25:03;;;;;;;30.40;14.90;;;;;;;14.30;73.34;99951.41;1705459;84;21714;-77
2021/09/12 03:28:08;;;;;;;36.45;14.90;;;;;;;14.32;73.25;99954.82;1705567;84;21319;-78
2021/09/12 03:31:13;;;;;;;28.95;14.45;;;;;;;14.30;73.19;99950.91;1705435;84;21213;-77
2021/09/12 03:34:18;;;;;;;24.52;13.20;;;;;;;14.29;73.23;99952.48;1705530;84;21307;-78
2021/09/12 03:37:23;;;;;;;22.60;13.48;;;;;;;14.30;73.60;99961.05;1706077;84;21319;-78
2021/09/12 03:40:29;;;;;;;22.10;12.85;;;;;;;14.29;73.79;99960.20;1706947;84;21308;-77
2021/09/12 03:43:34;;;;;;;25.15;13.88;;;;;;;14.31;74.02;99958.64;1706952;84;21169;-78
2021/09/12 03:46:40;;;;;;;24.55;13.48;;;;;;;14.36;74.06;99958.85;1706045;83;21316;-78
2021/09/12 03:49:45;;;;;;;24.05;13.18;;;;;;;14.42;73.88;99958.01;1706853;84;21311;-77
2021/09/12 03:52:54;;;;;;;24.63;13.20;;;;;;;14.48;73.49;99961.84;1705964;84;21336;-78
2021/09/12 03:55:59;;;;;;;41.83;13.48;;;;;;;14.55;73.03;99963.56;1707071;84;21174;-77
2021/09/12 03:59:05;;;;;;;22.27;11.85;;;;;;;14.64;72.55;99962.83;1705579;84;21726;-78
2021/09/12 04:02:11;;;;;;;38.45;14.58;;;;;;;14.73;72.07;99955.21;1706279;84;21786;-78
2021/09/12 04:05:16;;;;;;;22.13;12.65;;;;;;;14.84;71.53;99960.06;1706771;84;21291;-77
2021/09/12 04:08:22;;;;;;;29.60;13.50;;;;;;;14.95;71.13;99962.16;1707036;84;21249;-78
2021/09/12 04:11:28;;;;;;;20.60;10.93;;;;;;;15.06;70.62;99961.54;1705551;84;21245;-78
2021/09/12 04:14:34;;;;;;;25.43;12.68;;;;;;;15.17;70.17;99968.29;1707075;84;21893;-77
2021/09/12 04:17:38;;;;;;;22.82;11.43;;;;;;;15.29;69.61;99972.59;1705615;84;21217;-78
2021/09/12 04:20:44;;;;;;;21.60;11.53;;;;;;;15.37;69.19;99968.24;1705534;84;21177;-78
2021/09/12 04:23:49;;;;;;;22.10;11.25;;;;;;;15.47;68.89;99976.91;1705529;84;21770;-78
2021/09/12 04:26:55;;;;;;;44.35;12.10;;;;;;;15.55;68.57;99979.43;1706483;84;21197;-77
2021/09/12 04:30:02;;;;;;;19.80;11.15;;;;;;;15.63;68.33;99974.76;1705639;84;21303;-78
2021/09/12 04:33:07;;;;;;;19.02;10.03;;;;;;;15.73;68.04;99973.26;1705629;84;21312;-77
2021/09/12 04:36:12;;;;;;;20.90;10.23;;;;;;;15.85;67.40;99972.02;1706838;84;21316;-78
2021/09/12 04:39:19;;;;;;;18.37;11.12;;;;;;;15.97;66.72;99971.66;1705571;84;21261;-78
2021/09/12 04:42:24;;;;;;;24.98;11.83;;;;;;;16.09;66.17;99968.53;1705760;84;21304;-78
2021/09/12 04:45:30;;;;;;;17.35;10.53;;;;;;;16.23;65.65;99971.20;1705504;84;21269;-78
2021/09/12 04:48:35;;;;;;;28.98;10.78;;;;;;;16.35;65.35;99975.80;1718807;83;21149;-78
2021/09/12 04:51:43;;;;;;;18.82;10.00;;;;;;;16.48;64.80;99977.63;1689518;85;21786;-78
2021/09/12 04:54:50;;;;;;;49.38;10.28;;;;;;;16.60;64.33;99972.22;1689649;85;21304;-78
2021/09/12 04:57:55;;;;;;;24.37;11.40;;;;;;;16.72;63.66;99966.33;1718788;83;21314;-78
2021/09/12 05:01:02;;;;;;;26.25;9.75;;;;;;;16.86;62.85;99972.59;1691178;85;21809;-78
2021/09/12 05:04:10;;;;;;;19.60;9.98;;;;;;;16.99;61.96;99968.34;1719673;83;21295;-78
2021/09/12 05:07:15;;;;;;;19.80;9.28;;;;;;;17.14;61.42;99962.45;1690531;84;21323;-77
2021/09/12 05:10:21;;;;;;;17.85;8.98;;;;;;;17.31;60.13;99962.69;1718542;83;21321;-78
2021/09/12 05:13:28;;;;;;;21.65;9.65;;;;;;;17.50;58.86;99958.89;1690571;85;21860;-78
2021/09/12 05:16:33;;;;;;;20.95;10.32;;;;;;;17.69;57.52;99950.56;1719388;83;21315;-78
2021/09/12 05:19:41;;;;;;;22.65;9.90;;;;;;;17.86;57.31;99955.27;1689726;85;21399;-78
2021/09/12 05:22:46;;;;;;;19.42;9.55;;;;;;;18.01;56.68;99954.02;1718264;83;21307;-77
2021/09/12 05:25:51;;;;;;;19.50;9.50;;;;;;;18.11;56.09;99958.45;1689619;84;21355;-78
2021/09/12 05:28:58;;;;;;;24.12;9.63;;;;;;;18.20;55.67;99958.42;1718827;83;21244;-77
2021/09/12 05:32:04;;;;;;;22.40;9.90;;;;;;;18.26;55.30;99956.67;1689699;84;21774;-77
2021/09/12 05:35:10;;;;;;;17.15;8.63;;;;;;;18.34;55.31;99956.31;1718250;83;21232;-77
2021/09/12 05:38:15;;;;;;;26.05;9.35;;;;;;;18.45;54.75;99962.45;1689794;85;21169;-78
2021/09/12 05:41:21;;;;;;;21.87;8.55;;;;;;;18.60;53.81;99964.77;1719698;83;21865;-78
2021/09/12 05:44:26;;;;;;;19.85;7.33;;;;;;;18.80;52.73;99968.63;1690067;85;21193;-77
2021/09/12 05:47:31;;;;;;;18.20;6.87;;;;;;;19.03;51.14;99964.50;1712095;83;21315;-78
2021/09/12 05:50:37;;;;;;;18.37;6.78;;;;;;;19.25;50.32;99963.36;1753759;82;21217;-77
2021/09/12 05:53:43;;;;;;;17.82;7.15;;;;;;;19.49;49.67;99968.89;1678348;85;21174;-78
2021/09/12 05:56:49;;;;;;;17.62;6.97;;;;;;;19.72;49.05;99962.50;1753977;81;21233;-78
2021/09/12 05:59:54;;;;;;;20.00;6.65;;;;;;;19.96;48.37;99968.28;1677568;85;21352;-77
2021/09/12 06:02:59;;;;;;;14.33;7.00;;;;;;;20.19;47.94;99967.91;1753893;82;21186;-77
2021/09/12 06:06:04;;;;;;;19.80;6.75;;;;;;;20.41;46.59;99974.42;1678288;84;21731;-78
2021/09/12 06:09:10;;;;;;;15.95;6.20;;;;;;;20.57;46.09;99970.88;1753860;81;21174;-78
2021/09/12 06:12:17;;;;;;;19.37;5.80;;;;;;;20.73;45.52;99971.14;1677565;84;21363;-77
2021/09/12 06:15:22;;;;;;;11.90;5.72;;;;;;;20.88;45.05;99972.23;1755214;82;21201;-77
2021/09/12 06:18:29;;;;;;;14.23;5.40;;;;;;;21.06;44.79;99978.10;1676975;85;21186;-78
2021/09/12 06:21:34;;;;;;;29.00;5.33;;;;;;;21.26;44.57;99964.22;1755081;82;21178;-78
2021/09/12 06:24:38;;;;;;;16.95;5.25;;;;;;;21.47;43.65;99972.37;1678452;85;21166;-78
2021/09/12 06:27:43;;;;;;;14.33;4.62;;;;;;;21.63;42.75;99972.31;1754194;82;21207;-78
2021/09/12 06:30:49;;;;;;;18.73;4.60;;;;;;;21.78;41.61;99972.22;1676797;84;21384;-78
2021/09/12 06:33:55;;;;;;;12.95;4.33;;;;;;;21.87;41.18;99984.59;1755236;82;21139;-78
2021/09/12 06:37:00;;;;;;;19.60;5.17;;;;;;;21.92;40.63;99977.70;1754637;82;21830;-78
2021/09/12 06:40:05;;;;;;;10.03;5.05;;;;;;;21.96;40.67;99977.47;1678208;85;21222;-78
2021/09/12 06:43:09;;;;;;;19.67;5.42;;;;;;;22.05;40.72;99975.08;1753950;82;21336;-78
2021/09/12 06:46:15;;;;;;;13.43;3.72;;;;;;;22.12;40.81;99987.75;1678386;84;21340;-78
2021/09/12 06:49:22;;;;;;;14.98;3.90;;;;;;;22.23;40.05;99983.13;1757109;81;21288;-78
2021/09/12 06:52:27;;;;;;;9.03;3.80;;;;;;;22.35;39.87;99988.58;1682579;84;21315;-78
2021/09/12 06:55:32;;;;;;;7.33;3.62;;;;;;;22.49;39.58;99983.40;1681850;85;21238;-78
2021/09/12 06:58:39;;;;;;;8.00;2.92;;;;;;;22.61;38.24;99986.33;1683450;85;21303;-78
2021/09/12 07:01:44;;;;;;;14.98;3.62;;;;;;;22.69;37.74;99987.25;1711071;84;21309;-78
2021/09/12 07:04:50;;;;;;;7.12;3.02;;;;;;;22.79;37.98;99994.03;1683423;85;21174;-78
2021/09/12 07:07:56;;;;;;;7.58;3.42;;;;;;;22.90;37.61;99991.09;1710520;83;21212;-78
2021/09/12 07:11:01;;;;;;;10.25;3.25;;;;;;;23.00;37.86;99993.13;1683109;85;21221;-78
2021/09/12 07:14:07;;;;;;;8.03;3.12;;;;;;;23.06;37.21;99992.63;1711831;84;21281;-78
2021/09/12 07:17:13;;;;;;;14.38;3.80;;;;;;;23.10;37.57;100000.20;1682108;84;21248;-78
2021/09/12 07:20:19;;;;;;;4.45;2.62;;;;;;;23.14;36.97;99999.93;1711789;84;21165;-78
2021/09/12 07:23:25;;;;;;;9.88;2.85;;;;;;;23.18;36.81;100000.25;1683552;85;21331;-78
2021/09/12 07:26:30;;;;;;;10.72;3.35;;;;;;;23.21;37.02;99997.77;1712067;84;21328;-78
2021/09/12 07:29:35;;;;;;;6.58;2.98;;;;;;;23.26;36.70;100003.95;1683500;85;21174;-77
2021/09/12 07:32:41;;;;;;;5.03;2.95;;;;;;;23.31;36.40;100009.56;1711038;84;21209;-78
2021/09/12 07:35:48;;;;;;;6.72;2.75;;;;;;;23.35;36.21;100002.90;1683468;85;21285;-78
2021/09/12 07:38:54;;;;;;;16.95;2.92;;;;;;;23.44;36.56;100001.29;1711971;84;21528;-78
2021/09/12 07:41:59;;;;;;;12.30;3.02;;;;;;;23.55;35.96;100000.80;1682828;85;21809;-78
2021/09/12 07:45:05;;;;;;;9.55;2.62;;;;;;;23.66;36.10;100003.39;1711844;84;21237;-78
2021/09/12 07:48:12;;;;;;;7.90;2.83;;;;;;;23.83;35.72;99997.64;1682157;85;21347;-78
2021/09/12 07:51:18;;;;;;;11.57;3.75;;;;;;;24.04;35.77;100000.52;1715055;83;21881;-78
2021/09/12 07:54:23;;;;;;;10.15;2.75;;;;;;;24.19;35.14;99996.41;1688609;85;21221;-78
2021/09/12 07:57:29;;;;;;;5.28;2.87;;;;;;;24.37;34.73;100000.67;1716420;83;21245;-78
2021/09/12 08:00:34;;;;;;;6.28;2.83;;;;;;;24.50;34.07;99995.96;1688286;85;21909;-78
2021/09/12 08:03:40;;;;;;;8.93;2.75;;;;;;;24.57;33.48;99993.75;1717249;83;21336;-78
2021/09/12 08:06:46;;;;;;;8.88;2.67;;;;;;;24.61;33.19;99996.28;1675977;85;21319;-78
2021/09/12 08:09:51;;;;;;;6.45;2.90;;;;;;;24.64;33.04;99983.69;1715907;83;21181;-78
2021/09/12 08:12:57;;;;;;;14.00;3.70;;;;;;;24.69;33.53;99977.54;1687385;85;21389;-78
2021/09/12 08:16:03;;;;;;;13.95;3.08;;;;;;;24.73;33.89;99984.27;1716736;83;21853;-78
2021/09/12 08:19:09;;;;;;;13.32;3.33;;;;;;;24.85;32.81;99985.41;1688517;85;21165;-78
2021/09/12 08:22:14;;;;;;;8.15;2.85;;;;;;;24.96;32.27;99984.84;1716463;83;21213;-78
2021/09/12 08:25:20;;;;;;;9.35;2.58;;;;;;;25.04;31.97;99989.89;1687460;84;21185;-78
2021/09/12 08:28:26;;;;;;;3.25;2.20;;;;;;;25.07;31.78;99983.75;1717385;83;21367;-78
2021/09/12 08:31:31;;;;;;;4.72;2.30;;;;;;;25.10;31.15;99981.80;1688360;85;21319;-78
2021/09/12 08:34:36;;;;;;;8.08;2.20;;;;;;;25.20;31.10;99985.98;1717435;83;21166;-78
2021/09/12 08:37:42;;;;;;;6.33;2.30;;;;;;;25.24;31.16;99977.31;1687789;85;21323;-78
2021/09/12 08:40:47;;;;;;;8.08;2.72;;;;;;;25.28;31.16;99969.20;1717396;83;21789;-78
2021/09/12 08:43:54;;;;;;;4.75;1.80;;;;;;;25.32;30.72;99969.48;1687704;85;21924;-78
2021/09/12 08:46:59;;;;;;;3.83;2.02;;;;;;;25.33;29.93;99975.35;1717316;83;21837;-78
2021/09/12 08:50:04;;;;;;;10.18;2.50;;;;;;;25.41;29.37;99978.42;1688710;85;21284;-78
2021/09/12 08:53:09;;;;;;;3.45;1.50;;;;;;;25.46;29.56;99963.58;1705540;84;21320;-78
2021/09/12 08:56:14;;;;;;;6.25;1.70;;;;;;;25.53;29.34;99959.91;1765826;81;21335;-78
2021/09/12 08:59:35;;;;;;;8.85;1.70;;;;;;;25.67;28.77;99946.98;1741639;82;21825;-78
2021/09/12 09:02:40;;;;;;;4.35;1.62;;;;;;;25.72;29.10;99960.13;1741356;82;21307;-78
2021/09/12 09:05:50;;;;;;;5.28;1.67;;;;;;;25.75;28.43;99960.97;1704187;84;21172;-78
2021/09/12 09:08:56;;;;;;;6.00;2.00;;;;;;;25.65;29.02;99956.25;1741400;82;21283;-78
2021/09/12 09:12:03;;;;;;;10.20;1.80;;;;;;;25.63;28.72;99953.44;1740165;82;21252;-78
2021/09/12 09:15:13;;;;;;;6.65;1.67;;;;;;;25.61;29.31;99956.53;1741487;82;21271;-77
2021/09/12 09:18:18;;;;;;;;;;;;;;;25.66;29.36;99948.11;1679153;85;21307;-78
2021/09/12 09:21:34;;;;;;;8.58;1.62;;;;;;;25.74;29.15;99948.09;1677402;85;20257;-77
2021/09/12 09:24:40;;;;;;;7.37;1.70;;;;;;;25.77;28.83;99942.50;1741444;82;21738;-78
2021/09/12 09:28:10;;;;;;;4.92;1.82;;;;;;;25.78;28.43;99955.37;1740473;82;21378;-78
2021/09/12 09:31:15;;;;;;;9.68;2.08;;;;;;;25.73;28.22;99946.39;1677468;85;21322;-78
2021/09/12 09:34:27;;;;;;;5.97;1.30;;;;;;;25.64;28.39;99948.11;1740442;82;21172;-78
2021/09/12 09:37:32;;;;;;;3.83;1.62;;;;;;;25.56;28.04;99956.55;1741651;82;21350;-79
2021/09/12 09:40:30;;;;;;;3.30;1.70;;;;;;;25.56;28.79;99950.95;1741582;82;21161;-78
2021/09/12 09:43:57;;;;;;;3.95;1.52;;;;;;;25.66;28.98;99958.48;1677137;85;21738;-78
2021/09/12 09:47:02;;;;;;;6.15;1.37;;;;;;;25.72;28.37;99958.16;1740712;82;21343;-78
2021/09/12 09:50:18;;;;;;;5.78;1.47;;;;;;;25.72;28.07;99952.56;1739965;82;21220;-78
2021/09/12 09:53:23;;;;;;;7.15;2.00;;;;;;;25.70;28.23;99953.42;1738987;82;21852;-78
2021/09/12 09:56:29;;;;;;;11.45;2.47;;;;;;;25.69;27.97;99944.75;1741237;82;21224;-78
2021/09/12 09:59:35;;;;;;;4.33;1.67;;;;;;;25.68;28.32;99950.05;1740165;82;21164;-78
2021/09/12 10:02:41;;;;;;;2.17;1.40;;;;;;;25.72;27.71;99954.53;1741219;82;21354;-78
2021/09/12 10:05:47;;;;;;;4.65;1.60;;;;;;;25.77;27.72;99940.53;1740195;82;21892;-78
2021/09/12 10:08:53;;;;;;;2.90;1.57;;;;;;;25.91;27.47;99943.56;1677606;85;21845;-78
2021/09/12 10:12:03;;;;;;;4.72;1.60;;;;;;;26.07;27.14;99931.74;1761007;81;21250;-78
2021/09/12 10:15:17;;;;;;;9.15;1.52;;;;;;;26.13;27.18;99927.21;1770265;81;21703;-78
2021/09/12 10:18:23;;;;;;;5.50;1.55;;;;;;;26.19;27.38;99929.41;1770471;81;21729;-78
2021/09/12 10:21:32;;;;;;;11.33;1.90;;;;;;;26.31;27.23;99924.87;1705606;83;21208;-78
2021/09/12 10:24:39;;;;;;;5.97;1.30;;;;;;;26.46;27.05;99919.20;1771746;81;21877;-78
2021/09/12 10:27:49;;;;;;;8.55;1.72;;;;;;;26.57;26.62;99919.38;1704893;83;21320;-78
2021/09/12 10:30:55;;;;;;;3.17;1.70;;;;;;;26.63;26.88;99920.17;1772240;81;21279;-78
2021/09/12 10:34:17;;;;;;;7.47;1.92;;;;;;;26.66;26.51;99919.03;1734097;82;21789;-78
2021/09/12 10:37:39;;;;;;;5.65;1.90;;;;;;;26.67;26.82;99910.89;1772102;81;21846;-78
2021/09/12 10:40:58;;;;;;;10.72;1.72;;;;;;;26.69;26.82;99912.84;1772093;81;21276;-78
2021/09/12 10:44:03;;;;;;;1.80;1.35;;;;;;;26.73;26.77;99908.33;1771718;81;21338;-78
2021/09/12 10:47:16;;;;;;;3.83;1.70;;;;;;;26.67;26.16;99919.30;1771247;81;21180;-78
2021/09/12 10:50:50;;;;;;;9.30;1.95;;;;;;;26.46;26.30;99914.42;1705830;84;21188;-78
2021/09/12 10:54:05;;;;;;;7.12;2.02;;;;;;;26.28;26.58;99915.64;1769714;81;21343;-78
2021/09/12 10:57:16;;;;;;;5.85;1.52;;;;;;;26.11;26.80;99919.67;1705134;83;21339;-78
2021/09/12 11:00:21;;;;;;;3.77;2.02;;;;;;;26.02;26.93;99930.34;1771998;81;21267;-78
2021/09/12 11:03:26;;;;;;;4.40;1.80;;;;;;;25.91;26.85;99919.19;1771884;81;21235;-78
2021/09/12 11:06:33;;;;;;;8.40;1.90;;;;;;;25.87;26.88;99906.03;1734888;82;21751;-78
2021/09/12 11:09:40;;;;;;;13.22;1.85;;;;;;;25.90;26.75;99910.52;1770650;81;21733;-78
2021/09/12 11:12:46;;;;;;;5.83;1.80;;;;;;;25.96;26.92;99900.11;1770462;81;21200;-78
2021/09/12 11:15:51;;;;;;;3.92;1.20;;;;;;;25.96;27.09;99911.31;1704338;83;21168;-78
2021/09/12 11:19:05;;;;;;;5.35;2.00;;;;;;;26.00;27.26;99901.22;1771875;81;22583;-78
2021/09/12 11:22:10;;;;;;;7.92;1.70;;;;;;;26.06;27.11;99901.45;1770546;81;21233;-78
2021/09/12 11:25:15;;;;;;;5.42;2.05;;;;;;;26.08;27.48;99892.78;1772045;81;21296;-78
2021/09/12 11:28:20;;;;;;;4.42;1.55;;;;;;;26.10;27.63;99889.94;1735282;82;21169;-79
2021/09/12 11:31:29;;;;;;;12.45;1.62;;;;;;;26.15;27.36;99890.48;1771808;81;21303;-78
2021/09/12 11:34:35;;;;;;;4.87;1.27;;;;;;;26.21;27.18;99890.17;1770832;81;21307;-79
2021/09/12 11:37:39;;;;;;;3.62;1.62;;;;;;;26.19;27.35;99884.00;1734109;82;21758;-77
2021/09/12 11:40:46;;;;;;;3.60;1.37;;;;;;;26.23;27.10;99885.10;1770560;81;21173;-78
2021/09/12 11:44:01;;;;;;;2.90;1.40;;;;;;;26.27;26.58;99885.37;1735278;82;21296;-77
2021/09/12 11:47:06;;;;;;;10.45;1.72;;;;;;;26.23;26.79;99882.30;1772127;81;21148;-78
2021/09/12 11:50:14;;;;;;;2.65;1.30;;;;;;;26.18;27.01;99880.10;1755344;81;21211;-77
2021/09/12 11:53:19;;;;;;;5.85;1.55;;;;;;;26.15;27.18;99877.30;1705993;84;21288;-77
2021/09/12 11:56:24;;;;;;;4.65;1.47;;;;;;;26.19;26.93;99885.41;1770767;81;21196;-77
2021/09/12 11:59:30;;;;;;;5.12;1.12;;;;;;;26.29;26.99;99880.30;1770551;81;21346;-77
2021/09/12 12:02:37;;;;;;;4.53;1.40;;;;;;;26.29;26.53;99878.06;1770642;81;21355;-77
2021/09/12 12:05:43;;;;;;;3.52;1.30;;;;;;;26.23;26.84;99866.88;1704866;84;21384;-77
2021/09/12 12:09:18;;;;;;;3.10;1.40;;;;;;;26.20;26.76;99874.46;1771984;81;21299;-77
2021/09/12 12:12:26;;;;;;;8.93;1.10;;;;;;;26.19;26.99;99865.78;1735367;82;21308;-77
2021/09/12 12:15:50;;;;;;;7.70;1.30;;;;;;;26.23;26.47;99864.08;1771689;81;21331;-77
2021/09/12 12:19:13;;;;;;;4.78;1.25;;;;;;;26.22;26.33;99856.80;1770471;81;21160;-77
2021/09/12 12:22:19;;;;;;;2.35;1.17;;;;;;;26.21;26.09;99862.71;1704677;83;21224;-77
2021/09/12 12:25:36;;;;;;;1.62;1.10;;;;;;;26.23;26.20;99858.47;1772192;81;21810;-77
2021/09/12 12:28:42;;;;;;;6.45;1.47;;;;;;;26.25;26.10;99855.37;1770486;81;21212;-77
2021/09/12 12:31:47;;;;;;;3.90;1.20;;;;;;;26.24;26.38;99854.53;1705502;83;21324;-77
2021/09/12 12:35:01;;;;;;;4.87;1.10;;;;;;;26.25;26.15;99852.56;1772022;81;21291;-77
2021/09/12 12:38:06;;;;;;;2.70;1.17;;;;;;;26.23;26.48;99857.64;1704702;83;21318;-77
2021/09/12 12:41:16;;;;;;;6.22;1.20;;;;;;;26.21;26.30;99850.94;1771752;81;21765;-77
2021/09/12 12:44:21;;;;;;;2.92;1.20;;;;;;;26.18;26.52;99847.30;1772108;81;21338;-77
2021/09/12 12:47:35;;;;;;;2.98;1.42;;;;;;;26.16;26.74;99852.38;1706006;83;21323;-77
2021/09/12 12:50:47;;;;;;;3.70;1.52;;;;;;;26.14;26.80;99844.80;1772075;81;21252;-77
2021/09/12 12:53:56;;;;;;;4.08;1.50;;;;;;;26.11;26.81;99845.41;1705956;84;21297;-77
2021/09/12 12:57:02;;;;;;;2.95;1.02;;;;;;;26.07;26.81;99844.88;1771346;81;21752;-77
2021/09/12 13:00:07;;;;;;;6.17;1.32;;;;;;;26.02;26.43;99840.67;1735168;82;21311;-77
2021/09/12 13:03:13;;;;;;;2.67;1.30;;;;;;;26.05;26.62;99838.13;1770521;81;21263;-77
2021/09/12 13:06:21;;;;;;;7.03;1.40;;;;;;;26.05;26.45;99833.93;1705237;83;21311;-77
2021/09/12 13:09:26;;;;;;;5.47;1.40;;;;;;;26.03;26.66;99834.80;1772059;81;21279;-78
2021/09/12 13:12:33;;;;;;;3.45;1.90;;;;;;;26.01;26.83;99835.63;1733826;82;21781;-76
2021/09/12 13:15:40;;;;;;;7.45;1.55;;;;;;;25.98;26.97;99835.67;1772040;81;21311;-77
2021/09/12 13:18:46;;;;;;;3.15;1.35;;;;;;;25.97;27.11;99834.53;1733843;82;21184;-77
2021/09/12 13:21:51;;;;;;;3.45;1.32;;;;;;;25.95;27.01;99832.60;1771134;81;21304;-77
2021/09/12 13:25:02;;;;;;;3.52;1.45;;;;;;;25.93;26.80;99825.89;1772059;81;21284;-77
2021/09/12 13:28:07;;;;;;;3.08;1.40;;;;;;;25.90;26.86;99832.63;1704488;83;22000;-77
2021/09/12 13:31:13;;;;;;;10.43;1.75;;;;;;;25.85;26.92;99825.09;1771950;81;21294;-77
2021/09/12 13:34:20;;;;;;;10.28;1.50;;;;;;;25.85;27.31;99831.27;1735266;82;21173;-77
2021/09/12 13:37:26;;;;;;;6.53;1.30;;;;;;;25.86;27.09;99828.73;1770763;81;21244;-78
2021/09/12 13:40:34;;;;;;;4.72;1.27;;;;;;;25.89;27.19;99831.80;1705967;84;21302;-77
2021/09/12 13:43:40;;;;;;;6.20;1.32;;;;;;;25.88;27.27;99827.89;1771972;81;21311;-77
2021/09/12 13:46:45;;;;;;;5.72;1.40;;;;;;;25.87;27.10;99829.83;1735249;82;21743;-77
2021/09/12 13:49:50;;;;;;;2.98;1.42;;;;;;;25.82;27.52;99829.86;1772136;81;21319;-77
2021/09/12 13:52:55;;;;;;;6.00;1.30;;;;;;;25.79;27.38;99839.43;1771992;81;21204;-77
2021/09/12 13:56:03;;;;;;;5.28;1.35;;;;;;;25.76;27.25;99835.23;1772191;80;21821;-77
2021/09/12 13:59:09;;;;;;;5.00;1.47;;;;;;;25.72;27.47;99832.13;1780340;80;21165;-77
2021/09/12 14:02:15;;;;;;;5.37;1.52;;;;;;;25.69;27.61;99825.72;1778857;80;21164;-77
2021/09/12 14:05:20;;;;;;;13.20;1.90;;;;;;;25.67;27.61;99831.33;1713529;84;21299;-77
2021/09/12 14:08:26;;;;;;;5.50;1.90;;;;;;;25.66;27.80;99829.09;1741466;82;21359;-77
2021/09/12 14:11:32;;;;;;;6.92;2.08;;;;;;;25.63;27.84;99821.81;1742762;82;21272;-77
2021/09/12 14:14:38;;;;;;;6.55;1.62;;;;;;;25.57;28.20;99821.58;1743062;82;21828;-78
2021/09/12 14:17:44;;;;;;;9.20;2.15;;;;;;;25.49;28.13;99827.20;1741766;82;21314;-78
2021/09/12 14:20:49;;;;;;;10.85;1.90;;;;;;;25.48;28.30;99815.16;1741524;82;21303;-77
2021/09/12 14:23:54;;;;;;;5.95;1.60;;;;;;;25.51;28.25;99821.33;1742885;82;21275;-77
2021/09/12 14:26:59;;;;;;;9.13;1.67;;;;;;;25.52;28.10;99818.23;1741629;82;21221;-77
2021/09/12 14:30:05;;;;;;;2.80;1.52;;;;;;;25.49;28.31;99817.40;1743000;82;21271;-77